Time;durP1;ratioP1;P1;durP2;ratioP2;P2;SDS_P1;SDS_P2;PMS_P1;PMS_P2;Temp;Humidity;BMP_temperature;BMP_pressure;BME280_temperature;BME280_humidity;BME280_pressure;Samples;Min_cycle;Max_cycle;Signal;HPM_P1;HPM_P2
2022/09/02 00:01:25;;;;;;;10.68;8.60;;;;;;;;;;5095162;28;20289;-78
2022/09/02 00:03:54;;;;;;;8.63;5.50;;;;;;;;;;5097152;28;20242;-80
2022/09/02 00:06:22;;;;;;;8.93;5.37;;;;;;;;;;5092617;28;20203;-78
2022/09/02 00:08:52;;;;;;;9.77;5.13;;;;;;;;;;5102865;28;20201;-79
2022/09/02 00:11:22;;;;;;;8.67;4.63;;;;;;;;;;5112900;28;20231;-78
2022/09/02 00:13:51;;;;;;;5.27;3.43;;;;;;;;;;5103543;28;20593;-79
2022/09/02 00:16:18;;;;;;;5.03;3.17;;;;;;;;;;5098648;28;20712;-79
2022/09/02 00:18:47;;;;;;;4.57;3.30;;;;;;;;;;5101978;28;20193;-79
2022/09/02 00:21:14;;;;;;;4.27;3.10;;;;;;;;;;5102378;28;20665;-78
2022/09/02 00:23:42;;;;;;;4.80;3.50;;;;;;;;;;5105617;28;20226;-79
2022/09/02 00:26:12;;;;;;;8.07;3.50;;;;;;;;;;5103000;28;20623;-78
2022/09/02 00:28:41;;;;;;;3.87;3.20;;;;;;;;;;5105964;28;20197;-78
2022/09/02 00:31:08;;;;;;;7.00;3.30;;;;;;;;;;5101112;28;20234;-79
2022/09/02 00:33:35;;;;;;;6.30;3.47;;;;;;;;;;5099234;28;20860;-79
2022/09/02 00:36:06;;;;;;;7.33;3.67;;;;;;;;;;5107672;28;20227;-78
2022/09/02 00:38:34;;;;;;;5.07;3.40;;;;;;;;;;5110402;28;20692;-79
2022/09/02 00:41:03;;;;;;;7.37;3.90;;;;;;;;;;5112610;28;20240;-79
2022/09/02 00:43:40;;;;;;;7.87;3.60;;;;;;;;;;5092964;28;20242;-78
2022/09/02 00:46:11;;;;;;;5.87;3.70;;;;;;;;;;5106122;28;20290;-78
2022/09/02 00:48:41;;;;;;;7.03;4.07;;;;;;;;;;5100868;28;20199;-78
2022/09/02 00:51:10;;;;;;;6.93;3.80;;;;;;;;;;5091846;28;20253;-78
2022/09/02 00:53:39;;;;;;;5.73;4.07;;;;;;;;;;5102544;28;20202;-79
2022/09/02 00:56:11;;;;;;;8.03;4.20;;;;;;;;;;5084504;28;20195;-80
2022/09/02 00:58:39;;;;;;;4.80;3.83;;;;;;;;;;5095539;28;20577;-79
2022/09/02 01:01:10;;;;;;;4.63;4.00;;;;;;;;;;5104661;28;20277;-79
2022/09/02 01:03:40;;;;;;;5.87;4.00;;;;;;;;;;5099909;28;20218;-77
2022/09/02 01:06:08;;;;;;;8.00;4.07;;;;;;;;;;5110096;28;20213;-77
2022/09/02 01:08:38;;;;;;;4.10;3.70;;;;;;;;;;5098330;28;20198;-78
2022/09/02 01:11:06;;;;;;;5.63;4.07;;;;;;;;;;5107867;28;20258;-79
2022/09/02 01:13:37;;;;;;;4.80;3.83;;;;;;;;;;5112127;28;20205;-77
2022/09/02 01:16:10;;;;;;;4.67;3.90;;;;;;;;;;5107414;28;20193;-78
2022/09/02 01:18:40;;;;;;;4.87;4.07;;;;;;;;;;5088088;28;20191;-78
2022/09/02 01:21:09;;;;;;;4.73;3.80;;;;;;;;;;5107482;28;20551;-78
2022/09/02 01:23:40;;;;;;;5.13;4.00;;;;;;;;;;5097774;28;20200;-78
2022/09/02 01:26:09;;;;;;;8.33;4.10;;;;;;;;;;5104320;28;20569;-78
2022/09/02 01:28:37;;;;;;;6.20;4.07;;;;;;;;;;5099380;28;20235;-80
2022/09/02 01:31:19;;;;;;;5.50;3.83;;;;;;;;;;5102329;28;20240;-78
2022/09/02 01:33:46;;;;;;;6.43;3.83;;;;;;;;;;5093390;28;20259;-80
2022/09/02 01:36:14;;;;;;;4.37;3.80;;;;;;;;;;5106000;28;20218;-77
2022/09/02 01:38:43;;;;;;;6.20;4.07;;;;;;;;;;5101875;28;20557;-79
2022/09/02 01:41:10;;;;;;;5.03;3.97;;;;;;;;;;5088098;28;20261;-79
2022/09/02 01:43:39;;;;;;;5.93;4.00;;;;;;;;;;5104445;28;20201;-80
2022/09/02 01:46:07;;;;;;;6.90;4.00;;;;;;;;;;5091548;28;20256;-79
2022/09/02 01:48:35;;;;;;;6.77;4.20;;;;;;;;;;5110128;28;20206;-79
2022/09/02 01:51:04;;;;;;;6.67;3.77;;;;;;;;;;5107993;28;20195;-79
2022/09/02 01:53:32;;;;;;;4.70;3.63;;;;;;;;;;5092243;28;20199;-79
2022/09/02 01:56:02;;;;;;;3.93;3.53;;;;;;;;;;5091820;28;20241;-79
2022/09/02 01:58:31;;;;;;;4.67;3.60;;;;;;;;;;5091447;28;20222;-79
2022/09/02 02:00:59;;;;;;;4.97;4.03;;;;;;;;;;5101048;28;20199;-79
2022/09/02 02:03:28;;;;;;;7.03;3.40;;;;;;;;;;5098949;28;20259;-79
2022/09/02 02:05:56;;;;;;;5.03;3.53;;;;;;;;;;5102076;28;20225;-80
2022/09/02 02:08:25;;;;;;;5.37;3.60;;;;;;;;;;5109519;28;20209;-79
2022/09/02 02:10:52;;;;;;;4.67;4.10;;;;;;;;;;5089315;28;20205;-80
2022/09/02 02:13:21;;;;;;;5.37;3.93;;;;;;;;;;5098301;28;20283;-79
2022/09/02 02:15:49;;;;;;;5.97;4.00;;;;;;;;;;5094598;28;20616;-79
2022/09/02 02:18:16;;;;;;;5.17;4.23;;;;;;;;;;5084016;28;20226;-80
2022/09/02 02:20:43;;;;;;;5.87;4.30;;;;;;;;;;5096255;28;20237;-80
2022/09/02 02:23:11;;;;;;;5.57;4.50;;;;;;;;;;5094775;28;20236;-79
2022/09/02 02:25:39;;;;;;;5.50;4.23;;;;;;;;;;5113261;28;20300;-79
2022/09/02 02:28:06;;;;;;;6.97;4.53;;;;;;;;;;5098976;28;20193;-80
2022/09/02 02:30:36;;;;;;;5.77;4.53;;;;;;;;;;5108732;28;20225;-80
2022/09/02 02:33:06;;;;;;;7.00;4.33;;;;;;;;;;5088498;28;20222;-80
2022/09/02 02:35:36;;;;;;;7.93;4.17;;;;;;;;;;5076141;28;20286;-80
2022/09/02 02:38:06;;;;;;;5.87;4.10;;;;;;;;;;5094313;28;20260;-79
2022/09/02 02:40:35;;;;;;;6.60;4.33;;;;;;;;;;5104438;28;20198;-79
2022/09/02 02:43:03;;;;;;;9.87;5.00;;;;;;;;;;5105155;28;20239;-80
2022/09/02 02:45:32;;;;;;;7.03;4.17;;;;;;;;;;5101105;28;20316;-79
2022/09/02 02:48:01;;;;;;;5.47;4.00;;;;;;;;;;5110911;28;20204;-79
2022/09/02 02:50:31;;;;;;;5.47;4.30;;;;;;;;;;5094627;28;20237;-79
2022/09/02 02:53:01;;;;;;;8.20;4.30;;;;;;;;;;5094045;28;20236;-79
2022/09/02 02:55:28;;;;;;;6.40;3.87;;;;;;;;;;5097802;28;20199;-79
2022/09/02 02:57:56;;;;;;;6.80;3.90;;;;;;;;;;5097622;28;20762;-79
2022/09/02 03:00:24;;;;;;;5.63;4.20;;;;;;;;;;5101968;28;20222;-79
2022/09/02 03:02:51;;;;;;;5.87;3.83;;;;;;;;;;5095595;28;20241;-79
2022/09/02 03:05:20;;;;;;;5.13;4.00;;;;;;;;;;5093823;28;20313;-79
2022/09/02 03:07:47;;;;;;;7.60;4.33;;;;;;;;;;5093692;28;20293;-79
2022/09/02 03:10:14;;;;;;;5.40;3.93;;;;;;;;;;5103020;28;20256;-79
2022/09/02 03:12:46;;;;;;;5.90;4.50;;;;;;;;;;5099295;28;20618;-79
2022/09/02 03:15:14;;;;;;;6.63;4.23;;;;;;;;;;5096221;28;20565;-79
2022/09/02 03:17:41;;;;;;;5.27;4.10;;;;;;;;;;5106333;28;20280;-79
2022/09/02 03:20:09;;;;;;;6.50;4.50;;;;;;;;;;5096966;28;20285;-80
2022/09/02 03:22:37;;;;;;;6.13;4.83;;;;;;;;;;5079885;28;20281;-80
2022/09/02 03:25:05;;;;;;;7.83;4.67;;;;;;;;;;5112773;28;20700;-79
2022/09/02 03:27:33;;;;;;;5.43;4.90;;;;;;;;;;5104303;28;20236;-79
2022/09/02 03:30:01;;;;;;;7.40;5.10;;;;;;;;;;5104945;28;20203;-79
2022/09/02 03:32:28;;;;;;;5.50;4.93;;;;;;;;;;5110789;28;20229;-80
2022/09/02 03:34:55;;;;;;;7.70;4.90;;;;;;;;;;5107192;28;20285;-79
2022/09/02 03:37:23;;;;;;;6.80;4.87;;;;;;;;;;5107487;28;20618;-80
2022/09/02 03:39:51;;;;;;;6.07;5.23;;;;;;;;;;5096477;28;20240;-79
2022/09/02 03:42:18;;;;;;;5.60;5.10;;;;;;;;;;5091240;28;20280;-79
2022/09/02 03:44:46;;;;;;;6.10;5.17;;;;;;;;;;5100165;28;20197;-80
2022/09/02 03:47:16;;;;;;;5.77;4.77;;;;;;;;;;5100120;28;20210;-80
2022/09/02 03:49:43;;;;;;;7.10;5.90;;;;;;;;;;5095240;28;20198;-79
2022/09/02 03:52:10;;;;;;;7.10;5.60;;;;;;;;;;5097414;28;20198;-80
2022/09/02 03:54:37;;;;;;;9.77;5.27;;;;;;;;;;5108898;28;20229;-79
2022/09/02 03:57:06;;;;;;;6.90;5.43;;;;;;;;;;5100954;28;20278;-80
2022/09/02 03:59:33;;;;;;;6.43;5.30;;;;;;;;;;5099413;28;20647;-79
2022/09/02 04:02:01;;;;;;;8.63;5.27;;;;;;;;;;5102173;28;20297;-79
2022/09/02 04:04:29;;;;;;;7.07;5.03;;;;;;;;;;5106979;28;20198;-79
2022/09/02 04:06:56;;;;;;;7.40;5.33;;;;;;;;;;5101220;28;20551;-79
2022/09/02 04:09:24;;;;;;;6.23;5.17;;;;;;;;;;5100213;28;20195;-79
2022/09/02 04:11:51;;;;;;;5.77;5.13;;;;;;;;;;5095698;28;20229;-80
2022/09/02 04:14:19;;;;;;;6.97;5.20;;;;;;;;;;5104072;28;20280;-80
2022/09/02 04:16:47;;;;;;;9.07;5.60;;;;;;;;;;5108664;28;20230;-79
2022/09/02 04:19:15;;;;;;;7.30;5.43;;;;;;;;;;5108914;28;20209;-79
2022/09/02 04:21:42;;;;;;;6.77;5.53;;;;;;;;;;5103538;28;20280;-79
2022/09/02 04:24:11;;;;;;;8.00;5.73;;;;;;;;;;5106538;28;20208;-80
2022/09/02 04:26:38;;;;;;;9.30;5.67;;;;;;;;;;5092124;28;20283;-79
2022/09/02 04:29:06;;;;;;;7.47;5.83;;;;;;;;;;5093172;28;20230;-79
2022/09/02 04:31:35;;;;;;;8.90;6.07;;;;;;;;;;5092466;28;20681;-79
2022/09/02 04:34:02;;;;;;;9.07;6.00;;;;;;;;;;5107575;28;20229;-79
2022/09/02 04:36:30;;;;;;;10.17;6.37;;;;;;;;;;5107277;28;20221;-80
2022/09/02 04:38:58;;;;;;;9.30;7.00;;;;;;;;;;5092471;28;20968;-79
2022/09/02 04:41:27;;;;;;;8.50;6.40;;;;;;;;;;5092595;28;20253;-79
2022/09/02 04:43:55;;;;;;;10.43;6.00;;;;;;;;;;5106095;28;20672;-80
2022/09/02 04:46:23;;;;;;;9.30;6.50;;;;;;;;;;5094064;28;20242;-80
2022/09/02 04:48:51;;;;;;;7.90;6.30;;;;;;;;;;5107488;28;20209;-79
2022/09/02 04:51:20;;;;;;;10.03;6.83;;;;;;;;;;5099571;28;20209;-79
2022/09/02 04:53:48;;;;;;;8.33;5.83;;;;;;;;;;5088472;28;20240;-80
2022/09/02 04:56:17;;;;;;;8.83;6.17;;;;;;;;;;5092042;28;20258;-80
2022/09/02 04:58:45;;;;;;;9.27;6.40;;;;;;;;;;5088670;28;20316;-79
2022/09/02 05:01:14;;;;;;;8.00;6.03;;;;;;;;;;5093226;28;20210;-79
2022/09/02 05:03:41;;;;;;;10.00;6.70;;;;;;;;;;5100412;28;20201;-80
2022/09/02 05:06:11;;;;;;;8.00;6.50;;;;;;;;;;5112102;28;20312;-80
2022/09/02 05:08:40;;;;;;;8.20;6.63;;;;;;;;;;5085227;28;20234;-79
2022/09/02 05:11:07;;;;;;;8.67;6.23;;;;;;;;;;5111453;28;20198;-79
2022/09/02 05:13:35;;;;;;;7.70;6.53;;;;;;;;;;5104097;28;20218;-80
2022/09/02 05:16:02;;;;;;;8.63;6.70;;;;;;;;;;5103567;28;20218;-79
2022/09/02 05:18:30;;;;;;;9.60;6.80;;;;;;;;;;5096477;28;20213;-78
2022/09/02 05:20:57;;;;;;;8.63;6.77;;;;;;;;;;5107385;28;20205;-79
2022/09/02 05:23:25;;;;;;;11.73;7.10;;;;;;;;;;5092002;28;20286;-79
2022/09/02 05:25:52;;;;;;;11.03;7.20;;;;;;;;;;5094959;28;20305;-79
2022/09/02 05:28:20;;;;;;;8.00;6.37;;;;;;;;;;5094509;28;20237;-79
2022/09/02 05:30:47;;;;;;;9.80;6.97;;;;;;;;;;5108945;28;20241;-79
2022/09/02 05:33:14;;;;;;;8.73;6.90;;;;;;;;;;5080443;28;20279;-80
2022/09/02 05:35:42;;;;;;;8.00;7.00;;;;;;;;;;5108360;28;20224;-79
2022/09/02 05:38:09;;;;;;;9.97;6.80;;;;;;;;;;5098421;28;20259;-79
2022/09/02 05:40:38;;;;;;;8.93;6.70;;;;;;;;;;5094365;28;20709;-79
2022/09/02 05:43:06;;;;;;;10.57;7.40;;;;;;;;;;5082440;28;20648;-79
2022/09/02 05:45:34;;;;;;;10.40;6.90;;;;;;;;;;5113402;28;20237;-80
2022/09/02 05:49:04;;;;;;;7.63;6.80;;;;;;;;;;5097448;28;20281;-80
2022/09/02 05:50:49;;;;;;;9.17;6.93;;;;;;;;;;5094923;28;20784;-80
2022/09/02 05:53:16;;;;;;;10.93;7.30;;;;;;;;;;5095588;28;20230;-80
2022/09/02 05:55:45;;;;;;;7.80;6.93;;;;;;;;;;5095240;28;20710;-79
2022/09/02 05:58:13;;;;;;;9.30;7.53;;;;;;;;;;5087385;28;20318;-79
2022/09/02 06:00:40;;;;;;;8.43;6.90;;;;;;;;;;5097652;28;20982;-80
2022/09/02 06:03:07;;;;;;;9.10;7.27;;;;;;;;;;5093044;28;20226;-80
2022/09/02 06:05:36;;;;;;;8.10;7.30;;;;;;;;;;5098319;28;20228;-79
2022/09/02 06:08:03;;;;;;;7.87;7.00;;;;;;;;;;5097459;28;20226;-80
2022/09/02 06:10:31;;;;;;;10.27;7.30;;;;;;;;;;5096427;28;20700;-79
2022/09/02 06:12:59;;;;;;;8.43;7.57;;;;;;;;;;5098575;28;20221;-79
2022/09/02 06:15:29;;;;;;;9.50;7.37;;;;;;;;;;5095894;28;20199;-79
2022/09/02 06:17:58;;;;;;;10.10;7.33;;;;;;;;;;5087539;28;20203;-79
2022/09/02 06:20:27;;;;;;;9.97;7.77;;;;;;;;;;5093054;28;20678;-80
2022/09/02 06:22:55;;;;;;;11.97;7.87;;;;;;;;;;5111812;28;20290;-79
2022/09/02 06:25:22;;;;;;;8.93;7.23;;;;;;;;;;5102416;28;20281;-79
2022/09/02 06:27:49;;;;;;;9.23;7.60;;;;;;;;;;5094429;28;20250;-80
2022/09/02 06:30:18;;;;;;;9.80;7.73;;;;;;;;;;5094089;28;20234;-79
2022/09/02 06:32:45;;;;;;;10.03;8.30;;;;;;;;;;5104217;28;20222;-80
2022/09/02 06:35:13;;;;;;;9.93;7.93;;;;;;;;;;5114489;28;20702;-80
2022/09/02 06:37:40;;;;;;;10.37;8.83;;;;;;;;;;5113411;28;20232;-80
2022/09/02 06:40:08;;;;;;;11.10;8.90;;;;;;;;;;5094892;28;20202;-79
2022/09/02 06:42:36;;;;;;;12.53;10.13;;;;;;;;;;5091195;28;20236;-80
2022/09/02 06:45:03;;;;;;;10.57;8.27;;;;;;;;;;5103799;28;20289;-79
2022/09/02 06:47:32;;;;;;;11.93;8.53;;;;;;;;;;5098746;28;20222;-79
2022/09/02 06:49:59;;;;;;;8.77;7.88;;;;;;;;;;5095635;28;20194;-80
2022/09/02 06:52:26;;;;;;;11.07;8.52;;;;;;;;;;5093994;28;20199;-80
2022/09/02 06:54:54;;;;;;;11.93;8.25;;;;;;;;;;5108198;28;20286;-80
2022/09/02 06:57:21;;;;;;;11.67;8.00;;;;;;;;;;5105197;28;20273;-79
2022/09/02 06:59:48;;;;;;;10.98;8.10;;;;;;;;;;5096631;28;20230;-80
2022/09/02 07:02:16;;;;;;;10.50;7.93;;;;;;;;;;5095334;28;20681;-80
2022/09/02 07:07:29;;;;;;;10.80;8.15;;;;;;;;;;5100141;28;20268;-79
2022/09/02 07:09:56;;;;;;;9.73;7.97;;;;;;;;;;5095608;28;20289;-79
2022/09/02 07:12:25;;;;;;;10.15;8.70;;;;;;;;;;5102467;28;20645;-80
2022/09/02 07:14:53;;;;;;;8.95;8.05;;;;;;;;;;5093546;28;20209;-79
2022/09/02 07:17:21;;;;;;;10.60;8.32;;;;;;;;;;5096211;28;20190;-80
2022/09/02 07:19:50;;;;;;;11.15;8.30;;;;;;;;;;5112070;28;20193;-80
2022/09/02 07:22:18;;;;;;;9.52;8.13;;;;;;;;;;5107616;28;20282;-80
2022/09/02 07:24:45;;;;;;;9.55;8.13;;;;;;;;;;5103283;28;20198;-79
2022/09/02 07:27:13;;;;;;;10.45;8.68;;;;;;;;;;5094116;28;20299;-79
2022/09/02 07:29:42;;;;;;;9.75;7.40;;;;;;;;;;5092617;28;20692;-80
2022/09/02 07:32:10;;;;;;;9.63;7.75;;;;;;;;;;5091692;28;20686;-80
2022/09/02 07:34:37;;;;;;;10.38;7.65;;;;;;;;;;5099314;28;20233;-79
2022/09/02 07:37:06;;;;;;;11.65;7.53;;;;;;;;;;5101944;28;20620;-80
2022/09/02 07:39:33;;;;;;;7.03;6.32;;;;;;;;;;5100373;28;20190;-80
2022/09/02 07:42:00;;;;;;;6.05;5.45;;;;;;;;;;5102113;28;20279;-80
2022/09/02 07:44:28;;;;;;;6.88;5.28;;;;;;;;;;5100173;28;20292;-80
2022/09/02 07:46:55;;;;;;;6.15;4.55;;;;;;;;;;5094903;28;20256;-79
2022/09/02 07:49:23;;;;;;;5.10;4.60;;;;;;;;;;5100691;28;20583;-79
2022/09/02 07:51:50;;;;;;;5.20;4.60;;;;;;;;;;5093305;28;20285;-79
2022/09/02 07:54:20;;;;;;;6.85;5.15;;;;;;;;;;5096698;28;20323;-79
2022/09/02 07:56:48;;;;;;;5.57;4.88;;;;;;;;;;5099225;28;20285;-79
2022/09/02 07:59:15;;;;;;;5.60;5.10;;;;;;;;;;5101793;28;20217;-80
2022/09/02 08:01:43;;;;;;;6.07;4.90;;;;;;;;;;5096217;28;20677;-79
2022/09/02 08:04:11;;;;;;;5.55;4.90;;;;;;;;;;5100298;28;20209;-79
2022/09/02 08:06:38;;;;;;;9.18;5.70;;;;;;;;;;5099785;28;20917;-80
2022/09/02 08:09:09;;;;;;;6.32;5.50;;;;;;;;;;5095523;28;20194;-79
2022/09/02 08:11:39;;;;;;;6.32;5.25;;;;;;;;;;5090628;28;20245;-80
2022/09/02 08:14:07;;;;;;;6.70;6.03;;;;;;;;;;5108193;28;20266;-80
2022/09/02 08:16:34;;;;;;;6.90;5.55;;;;;;;;;;5110968;28;20194;-80
2022/09/02 08:19:01;;;;;;;6.65;5.40;;;;;;;;;;5105593;28;20229;-80
2022/09/02 08:21:29;;;;;;;7.82;5.28;;;;;;;;;;5110957;28;20225;-80
2022/09/02 08:23:57;;;;;;;7.95;5.05;;;;;;;;;;5099258;28;20646;-80
2022/09/02 08:26:27;;;;;;;6.30;5.70;;;;;;;;;;5097599;28;20737;-80
2022/09/02 08:28:55;;;;;;;6.35;5.35;;;;;;;;;;5092305;28;20195;-79
2022/09/02 08:31:23;;;;;;;5.40;4.93;;;;;;;;;;5104332;28;20735;-80
2022/09/02 08:33:50;;;;;;;7.72;5.38;;;;;;;;;;5096872;28;20689;-79
2022/09/02 08:36:17;;;;;;;6.30;5.70;;;;;;;;;;5095061;28;20585;-79
2022/09/02 08:38:44;;;;;;;5.78;5.28;;;;;;;;;;5099494;28;20201;-79
2022/09/02 08:41:13;;;;;;;5.82;4.63;;;;;;;;;;5106445;28;20273;-80
2022/09/02 08:43:42;;;;;;;5.40;4.90;;;;;;;;;;5091508;28;20213;-80
2022/09/02 08:46:14;;;;;;;6.43;5.30;;;;;;;;;;5088962;28;20233;-79
2022/09/02 08:48:44;;;;;;;5.72;5.18;;;;;;;;;;5102159;28;20595;-79
2022/09/02 08:51:13;;;;;;;6.82;5.32;;;;;;;;;;5095196;28;20194;-81
2022/09/02 08:53:45;;;;;;;6.25;5.47;;;;;;;;;;5108476;28;20228;-80
2022/09/02 08:56:13;;;;;;;5.50;5.10;;;;;;;;;;5091325;28;20220;-79
2022/09/02 08:58:43;;;;;;;6.35;5.60;;;;;;;;;;5081539;28;20245;-80
2022/09/02 09:01:16;;;;;;;8.20;6.70;;;;;;;;;;5095263;28;20273;-80
2022/09/02 09:03:50;;;;;;;6.50;5.95;;;;;;;;;;5095023;28;20715;-79
2022/09/02 09:06:21;;;;;;;7.35;6.35;;;;;;;;;;5105530;28;20284;-79
2022/09/02 09:08:52;;;;;;;6.97;6.28;;;;;;;;;;5097674;28;20639;-79
2022/09/02 09:11:24;;;;;;;8.10;6.70;;;;;;;;;;5091275;28;20222;-79
2022/09/02 09:13:58;;;;;;;7.70;6.68;;;;;;;;;;5107150;28;20240;-79
2022/09/02 09:16:33;;;;;;;7.95;7.03;;;;;;;;;;5091914;28;20288;-79
2022/09/02 09:19:01;;;;;;;7.40;6.75;;;;;;;;;;5090244;28;20707;-79
2022/09/02 09:21:32;;;;;;;9.63;7.38;;;;;;;;;;5091454;28;20201;-79
2022/09/02 09:24:01;;;;;;;9.63;7.90;;;;;;;;;;5107980;28;20300;-79
2022/09/02 09:26:29;;;;;;;8.30;7.45;;;;;;;;;;5102529;28;20225;-79
2022/09/02 09:28:58;;;;;;;8.27;7.38;;;;;;;;;;5104558;28;20254;-78
2022/09/02 09:31:29;;;;;;;9.80;8.35;;;;;;;;;;5091852;28;20681;-79
2022/09/02 09:34:02;;;;;;;10.63;8.20;;;;;;;;;;5090462;28;20666;-79
2022/09/02 09:36:48;;;;;;;8.15;7.35;;;;;;;;;;5091603;28;20682;-79
2022/09/02 09:39:18;;;;;;;9.55;8.60;;;;;;;;;;5091055;28;20247;-79
2022/09/02 09:41:46;;;;;;;9.68;8.68;;;;;;;;;;5075956;28;20269;-79
2022/09/02 09:44:29;;;;;;;12.48;11.18;;;;;;;;;;5089838;28;20662;-79
2022/09/02 09:47:01;;;;;;;11.77;9.52;;;;;;;;;;5072835;28;20265;-79
2022/09/02 09:49:33;;;;;;;12.55;11.25;;;;;;;;;;5088328;28;20200;-79
2022/09/02 09:52:01;;;;;;;12.57;10.35;;;;;;;;;;5086037;28;20199;-79
2022/09/02 09:54:28;;;;;;;10.70;9.70;;;;;;;;;;5087742;28;20285;-79
2022/09/02 09:56:55;;;;;;;12.13;10.85;;;;;;;;;;5091546;28;20303;-80
2022/09/02 09:59:36;;;;;;;13.05;10.18;;;;;;;;;;5097137;28;20399;-79
2022/09/02 10:02:04;;;;;;;12.32;10.90;;;;;;;;;;5096519;28;20230;-79
2022/09/02 10:04:33;;;;;;;12.68;11.43;;;;;;;;;;5084615;28;20277;-79
2022/09/02 10:07:00;;;;;;;11.48;10.32;;;;;;;;;;5090466;28;20226;-79
2022/09/02 10:09:32;;;;;;;11.65;10.45;;;;;;;;;;5083605;28;20281;-79
2022/09/02 10:12:00;;;;;;;12.52;10.90;;;;;;;;;;5098435;28;20281;-79
2022/09/02 10:14:32;;;;;;;10.65;8.75;;;;;;;;;;5098723;28;20194;-79
2022/09/02 10:17:03;;;;;;;9.55;8.55;;;;;;;;;;5095640;28;20226;-79
2022/09/02 10:19:34;;;;;;;12.15;10.95;;;;;;;;;;5096593;28;20840;-79
2022/09/02 10:22:14;;;;;;;11.45;10.30;;;;;;;;;;5102704;28;20839;-80
2022/09/02 10:24:47;;;;;;;10.90;9.82;;;;;;;;;;5093061;28;20237;-79
2022/09/02 10:27:16;;;;;;;12.82;10.70;;;;;;;;;;5114797;28;20253;-79
2022/09/02 10:29:52;;;;;;;12.10;10.73;;;;;;;;;;5104882;28;20816;-79
2022/09/02 10:32:24;;;;;;;12.57;10.82;;;;;;;;;;5094051;28;20221;-79
2022/09/02 10:34:58;;;;;;;10.60;9.60;;;;;;;;;;5096287;28;20236;-79
2022/09/02 10:37:27;;;;;;;10.75;9.77;;;;;;;;;;5096357;28;20709;-79
2022/09/02 10:40:00;;;;;;;10.32;9.35;;;;;;;;;;5091399;28;20286;-79
2022/09/02 10:42:32;;;;;;;12.15;10.07;;;;;;;;;;5102465;28;20646;-79
2022/09/02 10:45:04;;;;;;;13.80;10.48;;;;;;;;;;5107176;28;20233;-80
2022/09/02 10:47:36;;;;;;;10.75;9.70;;;;;;;;;;5094088;28;20298;-79
2022/09/02 10:50:07;;;;;;;12.02;10.32;;;;;;;;;;5090196;28;20226;-79
2022/09/02 10:52:44;;;;;;;10.70;9.65;;;;;;;;;;5094018;28;20226;-80
2022/09/02 10:55:16;;;;;;;10.63;9.02;;;;;;;;;;5090752;28;20636;-79
2022/09/02 10:57:46;;;;;;;11.40;9.57;;;;;;;;;;5077116;28;21072;-79
2022/09/02 11:00:15;;;;;;;8.70;7.80;;;;;;;;;;5106862;28;20197;-79
2022/09/02 11:02:44;;;;;;;9.27;8.27;;;;;;;;;;5095675;28;20305;-79
2022/09/02 11:05:14;;;;;;;9.48;8.27;;;;;;;;;;5093953;28;20198;-79
2022/09/02 11:07:45;;;;;;;9.75;8.45;;;;;;;;;;5109887;28;20300;-79
2022/09/02 11:10:16;;;;;;;9.88;8.10;;;;;;;;;;5113629;28;20305;-79
2022/09/02 11:12:48;;;;;;;10.18;9.18;;;;;;;;;;5101656;28;20216;-79
2022/09/02 11:15:18;;;;;;;9.43;8.52;;;;;;;;;;5102802;28;20226;-78
2022/09/02 11:17:47;;;;;;;8.82;8.02;;;;;;;;;;5103906;28;20222;-79
2022/09/02 11:20:19;;;;;;;10.85;9.85;;;;;;;;;;5091641;28;20241;-78
2022/09/02 11:22:54;;;;;;;11.73;9.07;;;;;;;;;;5083544;28;20225;-79
2022/09/02 11:25:24;;;;;;;10.20;9.20;;;;;;;;;;5084653;28;20245;-78
2022/09/02 11:27:55;;;;;;;10.23;9.25;;;;;;;;;;5087161;28;20301;-79
2022/09/02 11:30:24;;;;;;;9.05;8.25;;;;;;;;;;5100033;28;20212;-79
2022/09/02 11:32:54;;;;;;;9.05;8.15;;;;;;;;;;5107382;28;20236;-79
2022/09/02 11:35:26;;;;;;;9.98;8.85;;;;;;;;;;5092199;28;20199;-79
2022/09/02 11:37:57;;;;;;;9.68;8.63;;;;;;;;;;5100254;28;20604;-79
2022/09/02 11:40:26;;;;;;;9.85;8.98;;;;;;;;;;5108618;28;20271;-79
2022/09/02 11:43:02;;;;;;;8.32;7.53;;;;;;;;;;5106474;28;20291;-78
2022/09/02 11:45:38;;;;;;;8.88;7.60;;;;;;;;;;5087736;28;20845;-79
2022/09/02 11:48:13;;;;;;;8.10;7.25;;;;;;;;;;5091530;28;20225;-79
2022/09/02 11:50:53;;;;;;;6.80;6.10;;;;;;;;;;5104473;28;20193;-79
2022/09/02 11:53:25;;;;;;;7.38;5.93;;;;;;;;;;5099823;28;20226;-79
2022/09/02 11:55:55;;;;;;;7.20;6.50;;;;;;;;;;5073316;28;20626;-79
2022/09/02 11:58:33;;;;;;;6.80;6.10;;;;;;;;;;5098661;28;20246;-79
2022/09/02 12:01:04;;;;;;;8.93;5.80;;;;;;;;;;5092836;28;20646;-79
2022/09/02 12:03:32;;;;;;;7.60;6.78;;;;;;;;;;5101206;28;20222;-78
2022/09/02 12:06:08;;;;;;;7.45;6.68;;;;;;;;;;5094211;28;20194;-79
2022/09/02 12:08:54;;;;;;;7.32;6.63;;;;;;;;;;5109025;28;20643;-79
2022/09/02 12:11:40;;;;;;;7.63;6.82;;;;;;;;;;5089804;28;20198;-79
2022/09/02 12:14:10;;;;;;;7.70;7.00;;;;;;;;;;5098625;28;20292;-79
2022/09/02 12:16:41;;;;;;;8.15;6.55;;;;;;;;;;5092170;28;20210;-79
2022/09/02 12:19:26;;;;;;;7.07;5.97;;;;;;;;;;5083276;28;20218;-78
2022/09/02 12:22:12;;;;;;;7.15;6.55;;;;;;;;;;5107566;28;20646;-79
2022/09/02 12:24:50;;;;;;;8.07;7.28;;;;;;;;;;5093211;28;20237;-79
2022/09/02 12:27:35;;;;;;;7.70;6.70;;;;;;;;;;5109169;28;20229;-79
2022/09/02 12:30:06;;;;;;;6.63;5.80;;;;;;;;;;5110462;28;20210;-79
2022/09/02 12:33:03;;;;;;;5.88;5.28;;;;;;;;;;5103460;28;20200;-79
2022/09/02 12:35:48;;;;;;;6.30;5.70;;;;;;;;;;5102928;28;20222;-79
2022/09/02 12:38:26;;;;;;;6.25;5.05;;;;;;;;;;5104584;28;20282;-79
2022/09/02 12:40:56;;;;;;;6.43;4.55;;;;;;;;;;5093852;28;20663;-79
2022/09/02 12:43:26;;;;;;;5.57;5.00;;;;;;;;;;5087058;28;20207;-79
2022/09/02 12:45:58;;;;;;;5.75;5.10;;;;;;;;;;5097722;28;20218;-79
2022/09/02 12:48:28;;;;;;;6.03;4.78;;;;;;;;;;5091680;28;20226;-79
2022/09/02 12:50:56;;;;;;;6.47;5.28;;;;;;;;;;5106957;28;20197;-79
2022/09/02 12:53:34;;;;;;;7.63;6.15;;;;;;;;;;5102784;28;20720;-79
2022/09/02 12:56:05;;;;;;;6.63;5.95;;;;;;;;;;5101705;28;20229;-79
2022/09/02 12:58:34;;;;;;;7.18;6.20;;;;;;;;;;5107829;28;20292;-79
2022/09/02 13:01:06;;;;;;;8.50;6.57;;;;;;;;;;5095157;28;20233;-80
2022/09/02 13:03:43;;;;;;;6.55;5.95;;;;;;;;;;5092552;28;20194;-79
2022/09/02 13:06:12;;;;;;;7.00;5.57;;;;;;;;;;5101292;28;20229;-79
2022/09/02 13:09:00;;;;;;;7.13;6.40;;;;;;;;;;5099327;28;20237;-78
2022/09/02 13:11:36;;;;;;;6.40;5.78;;;;;;;;;;5075508;27;20234;-79
2022/09/02 13:14:22;;;;;;;7.00;6.15;;;;;;;;;;5085615;28;20209;-79
2022/09/02 13:16:55;;;;;;;8.18;6.10;;;;;;;;;;5101789;28;20229;-79
2022/09/02 13:19:30;;;;;;;7.85;6.03;;;;;;;;;;5094113;28;20232;-79
2022/09/02 13:22:05;;;;;;;6.28;5.53;;;;;;;;;;5103069;28;20239;-79
2022/09/02 13:24:51;;;;;;;5.68;5.18;;;;;;;;;;5094534;28;20206;-79
2022/09/02 13:27:29;;;;;;;7.78;6.32;;;;;;;;;;5104364;28;20236;-79
2022/09/02 13:30:06;;;;;;;6.35;5.75;;;;;;;;;;5087646;28;20222;-79
2022/09/02 13:32:36;;;;;;;9.10;8.18;;;;;;;;;;5101062;28;20201;-79
2022/09/02 13:35:05;;;;;;;9.18;8.27;;;;;;;;;;5094042;28;20208;-79
2022/09/02 13:37:34;;;;;;;8.50;7.60;;;;;;;;;;5098001;28;20224;-79
2022/09/02 13:40:04;;;;;;;8.73;7.82;;;;;;;;;;5079363;28;20195;-78
2022/09/02 13:42:32;;;;;;;8.13;7.32;;;;;;;;;;5099775;28;20644;-78
2022/09/02 13:45:16;;;;;;;7.47;6.63;;;;;;;;;;5094503;28;20206;-79
2022/09/02 13:47:46;;;;;;;7.78;6.00;;;;;;;;;;5096778;28;20205;-79
2022/09/02 13:50:15;;;;;;;6.65;5.38;;;;;;;;;;5101197;28;20283;-78
2022/09/02 13:52:42;;;;;;;6.18;5.10;;;;;;;;;;5097193;28;20247;-78
2022/09/02 13:55:11;;;;;;;6.65;6.05;;;;;;;;;;5091385;28;20248;-79
2022/09/02 13:57:39;;;;;;;7.15;6.45;;;;;;;;;;5094747;28;20242;-79
2022/09/02 14:00:07;;;;;;;7.82;5.75;;;;;;;;;;5110180;28;20220;-79
2022/09/02 14:02:35;;;;;;;8.57;6.38;;;;;;;;;;5094282;28;20194;-78
2022/09/02 14:05:06;;;;;;;5.18;4.68;;;;;;;;;;5109622;28;20237;-78
2022/09/02 14:07:36;;;;;;;6.80;6.10;;;;;;;;;;5105341;28;20194;-79
2022/09/02 14:10:05;;;;;;;7.53;6.13;;;;;;;;;;5095686;28;20987;-79
2022/09/02 14:12:33;;;;;;;5.72;5.20;;;;;;;;;;5075011;28;20855;-79
2022/09/02 14:15:01;;;;;;;6.60;4.85;;;;;;;;;;5103337;28;20621;-78
2022/09/02 14:17:28;;;;;;;6.68;4.82;;;;;;;;;;5090483;28;20252;-78
2022/09/02 14:20:10;;;;;;;5.32;4.88;;;;;;;;;;5102284;28;20569;-79
2022/09/02 14:22:38;;;;;;;4.97;4.18;;;;;;;;;;5093316;28;20228;-78
2022/09/02 14:25:09;;;;;;;5.07;3.47;;;;;;;;;;5093451;28;20236;-79
2022/09/02 14:27:37;;;;;;;4.43;4.03;;;;;;;;;;5094386;28;20198;-79
2022/09/02 14:30:08;;;;;;;4.13;3.47;;;;;;;;;;5103057;28;20266;-78
2022/09/02 14:32:35;;;;;;;5.03;4.20;;;;;;;;;;5100457;28;20206;-79
2022/09/02 14:35:12;;;;;;;4.28;2.95;;;;;;;;;;5083967;28;20190;-79
2022/09/02 14:37:49;;;;;;;4.38;3.60;;;;;;;;;;5085826;28;20260;-79
2022/09/02 14:40:18;;;;;;;5.35;4.20;;;;;;;;;;5092920;28;20194;-79
2022/09/02 14:42:46;;;;;;;5.10;4.40;;;;;;;;;;5113396;28;20241;-79
2022/09/02 14:45:13;;;;;;;6.72;5.45;;;;;;;;;;5104310;28;20297;-78
2022/09/02 14:47:41;;;;;;;7.47;5.18;;;;;;;;;;5105508;28;20278;-79
2022/09/02 14:50:14;;;;;;;7.07;5.75;;;;;;;;;;5104955;28;20334;-79
2022/09/02 14:52:47;;;;;;;7.32;6.28;;;;;;;;;;5095824;28;20363;-78
2022/09/02 14:55:45;;;;;;;7.13;4.93;;;;;;;;;;5100652;28;20210;-79
2022/09/02 14:58:12;;;;;;;8.38;7.38;;;;;;;;;;5086232;28;20672;-80
2022/09/02 15:00:40;;;;;;;6.70;5.80;;;;;;;;;;5096131;28;20214;-79